createdAt,value
2023-04-19T00:01:53.920Z,99582.25
2023-04-19T00:04:39.432Z,99618.06
2023-04-19T00:07:23.518Z,99599.06
2023-04-19T00:10:08.813Z,99604.75
2023-04-19T00:12:53.384Z,99619.06
2023-04-19T00:15:37.721Z,99598.31
2023-04-19T00:18:23.216Z,99572.63
2023-04-19T00:21:07.872Z,99573.50
2023-04-19T00:23:51.758Z,99567.31
2023-04-19T00:26:35.812Z,99571.81
2023-04-19T00:29:19.888Z,99560.94
2023-04-19T00:32:06.033Z,99558.56
2023-04-19T00:34:51.562Z,99590.59
2023-04-19T00:37:35.892Z,99568.13
2023-04-19T00:40:21.821Z,99542.69
2023-04-19T00:43:05.809Z,99538.69
2023-04-19T00:45:51.275Z,99594.91
2023-04-19T00:48:37.520Z,99589.16
2023-04-19T00:51:23.154Z,99593.78
2023-04-19T00:54:08.432Z,99548.63
2023-04-19T00:56:53.033Z,99593.91
2023-04-19T00:59:37.017Z,99543.03
2023-04-19T01:02:22.482Z,99593.59
2023-04-19T01:05:08.086Z,99595.66
2023-04-19T01:07:53.665Z,99594.53
2023-04-19T01:10:37.622Z,99563.72
2023-04-19T01:13:21.627Z,99550.19
2023-04-19T01:16:07.732Z,99590.94
2023-04-19T01:18:51.860Z,99545.78
2023-04-19T01:21:39.556Z,99552.94
2023-04-19T01:24:25.111Z,99587.38
2023-04-19T01:27:09.135Z,99576.94
2023-04-19T01:29:53.147Z,99507.59
2023-04-19T01:32:37.218Z,99542.72
2023-04-19T01:35:21.467Z,99567.34
2023-04-19T01:38:05.611Z,99575.66
2023-04-19T01:40:51.024Z,99569.03
2023-04-19T01:43:35.071Z,99566.75
2023-04-19T01:46:20.156Z,99459.66
2023-04-19T01:49:03.947Z,99562.97
2023-04-19T01:51:47.819Z,99565.44
2023-04-19T01:54:31.758Z,99545.25
2023-04-19T01:57:18.924Z,99553.00
2023-04-19T02:00:03.297Z,99559.41
2023-04-19T02:02:58.764Z,99559.56
2023-04-19T02:05:42.680Z,99552.47
2023-04-19T02:08:26.540Z,99556.97
2023-04-19T02:11:10.875Z,99557.19
2023-04-19T02:13:56.411Z,99539.72
2023-04-19T02:16:40.582Z,99557.16
2023-04-19T02:19:24.612Z,99546.03
2023-04-19T02:22:08.539Z,99546.03
2023-04-19T02:24:52.662Z,99550.44
2023-04-19T02:27:36.837Z,99552.25
2023-04-19T02:30:22.226Z,99545.84
2023-04-19T02:33:07.753Z,99540.53
2023-04-19T02:35:51.745Z,99504.34
2023-04-19T02:38:35.569Z,99543.66
2023-04-19T02:41:19.766Z,99551.78
2023-04-19T02:44:03.745Z,99533.78
2023-04-19T02:46:51.569Z,99538.69
2023-04-19T02:49:37.974Z,99535.56
2023-04-19T02:52:22.319Z,99533.81
2023-04-19T02:55:06.955Z,99539.41
2023-04-19T02:57:51.317Z,99537.75
2023-04-19T03:00:35.784Z,99542.06
2023-04-19T03:03:27.032Z,99538.38
2023-04-19T03:06:11.272Z,99536.03
2023-04-19T03:08:55.152Z,99543.03
2023-04-19T03:11:39.093Z,99549.00
2023-04-19T03:14:23.243Z,99549.09
2023-04-19T03:17:07.702Z,99529.91
2023-04-19T03:19:54.603Z,99535.69
2023-04-19T03:22:39.179Z,99543.97
2023-04-19T03:25:23.325Z,99546.81
2023-04-19T03:28:16.058Z,99523.97
2023-04-19T03:31:23.376Z,99539.06
2023-04-19T03:34:10.280Z,99538.88
2023-04-19T03:36:59.844Z,99538.00
2023-04-19T03:39:43.762Z,99537.88
2023-04-19T03:42:32.209Z,99538.28
2023-04-19T03:45:23.037Z,99537.31
2023-04-19T03:48:07.619Z,99535.03
2023-04-19T03:50:52.161Z,99542.13
2023-04-19T03:53:38.510Z,99534.75
2023-04-19T03:56:22.402Z,99541.69
2023-04-19T03:59:08.021Z,99545.69
2023-04-19T04:01:54.225Z,99546.47
2023-04-19T04:04:39.186Z,99542.09
2023-04-19T04:07:24.762Z,99540.31
2023-04-19T04:10:11.941Z,99545.22
2023-04-19T04:12:59.612Z,99544.44
2023-04-19T04:15:54.627Z,99553.00
2023-04-19T04:18:38.880Z,99557.19
2023-04-19T04:21:27.337Z,99554.53
2023-04-19T04:24:14.335Z,99556.81
2023-04-19T04:27:28.991Z,99551.22
2023-04-19T04:30:13.676Z,99549.53
2023-04-19T04:32:59.188Z,99548.75
2023-04-19T04:35:44.186Z,99543.72
2023-04-19T04:38:34.202Z,99546.25
2023-04-19T04:41:18.200Z,99549.19
2023-04-19T04:44:12.630Z,99542.28
2023-04-19T04:46:58.193Z,99526.06
2023-04-19T04:49:44.520Z,99551.63
2023-04-19T04:52:28.502Z,99552.94
2023-04-19T04:55:21.316Z,99554.69
2023-04-19T04:58:05.718Z,99563.94
2023-04-19T05:01:24.071Z,99567.16
2023-04-19T05:04:09.543Z,99566.28
2023-04-19T05:06:53.569Z,99573.09
2023-04-19T05:09:42.270Z,99559.16
2023-04-19T05:12:27.337Z,99569.19
2023-04-19T05:15:12.404Z,99534.84
2023-04-19T05:18:02.341Z,99580.03
2023-04-19T05:20:46.946Z,99571.34
2023-04-19T05:23:38.752Z,99571.09
2023-04-19T05:26:23.229Z,99571.19
2023-04-19T05:29:08.492Z,99571.94
2023-04-19T05:32:04.205Z,99573.34
2023-04-19T05:34:59.150Z,99568.84
2023-04-19T05:37:43.162Z,99572.78
2023-04-19T05:40:27.156Z,99581.03
2023-04-19T05:43:11.484Z,99572.78
2023-04-19T05:45:55.419Z,99579.78
2023-04-19T05:48:39.238Z,99575.25
2023-04-19T05:51:42.999Z,99552.88
2023-04-19T05:54:47.173Z,99579.22
2023-04-19T05:57:31.360Z,99579.78
2023-04-19T06:00:17.348Z,99576.75
2023-04-19T06:03:10.051Z,99569.34
2023-04-19T06:05:54.220Z,99574.47
2023-04-19T06:08:39.524Z,99569.78
2023-04-19T06:11:29.231Z,99578.25
2023-04-19T06:14:23.760Z,99579.59
2023-04-19T06:17:07.935Z,99543.25
2023-04-19T06:19:52.230Z,99577.31
2023-04-19T06:22:37.150Z,99584.72
2023-04-19T06:25:22.620Z,99584.34
2023-04-19T06:28:06.780Z,99585.47
2023-04-19T06:30:50.745Z,99578.97
2023-04-19T06:33:34.685Z,99586.06
2023-04-19T06:36:18.578Z,99592.25
2023-04-19T06:39:02.484Z,99597.53
2023-04-19T06:41:47.803Z,99594.53
2023-04-19T06:44:33.885Z,99601.16
2023-04-19T06:47:17.758Z,99603.41
2023-04-19T06:50:01.533Z,99601.84
2023-04-19T06:52:47.303Z,99606.72
2023-04-19T06:55:31.240Z,99595.56
2023-04-19T06:58:16.595Z,99604.22
2023-04-19T07:01:01.370Z,99600.44
2023-04-19T07:03:47.552Z,99611.19
2023-04-19T07:06:31.912Z,99612.56
2023-04-19T07:09:15.710Z,99609.53
2023-04-19T07:11:59.549Z,99602.19
2023-04-19T07:14:44.824Z,99625.72
2023-04-19T07:17:28.693Z,99626.66
2023-04-19T07:20:12.786Z,99611.06
2023-04-19T07:22:56.832Z,99623.50
2023-04-19T07:25:40.787Z,99629.31
2023-04-19T07:28:24.627Z,99619.47
2023-04-19T07:31:09.920Z,99633.94
2023-04-19T07:33:54.239Z,99638.84
2023-04-19T07:36:39.146Z,99637.69
2023-04-19T07:39:23.008Z,99642.66
2023-04-19T07:42:07.025Z,99645.84
2023-04-19T07:44:51.288Z,99607.13
2023-04-19T07:47:36.821Z,99626.34
2023-04-19T07:50:23.123Z,99617.88
2023-04-19T07:53:07.268Z,99615.78
2023-04-19T07:55:51.390Z,99631.28
2023-04-19T07:58:35.485Z,99629.22
2023-04-19T08:01:19.405Z,99661.75
2023-04-19T08:04:05.091Z,99663.69
2023-04-19T08:06:49.034Z,99665.06
2023-04-19T08:09:35.273Z,99647.66
2023-04-19T08:12:30.951Z,99665.09
2023-04-19T08:15:52.340Z,99670.75
2023-04-19T08:18:21.436Z,99644.59
2023-04-19T08:21:07.213Z,99659.31
2023-04-19T08:23:53.555Z,99667.47
2023-04-19T08:26:39.129Z,99670.03
2023-04-19T08:29:23.468Z,99671.91
2023-04-19T08:32:07.602Z,99669.88
2023-04-19T08:34:51.411Z,99675.69
2023-04-19T08:37:36.787Z,99657.84
2023-04-19T08:40:20.939Z,99676.78
2023-04-19T08:43:07.310Z,99666.47
2023-04-19T08:45:52.231Z,99634.78
2023-04-19T08:48:37.672Z,99682.53
2023-04-19T08:51:22.340Z,99671.03
2023-04-19T08:54:08.728Z,99669.03
2023-04-19T08:56:54.169Z,99663.31
2023-04-19T08:59:38.068Z,99628.69
2023-04-19T09:02:22.150Z,99679.34
2023-04-19T09:05:07.689Z,99675.94
2023-04-19T09:07:52.070Z,99528.59
2023-04-19T09:10:37.277Z,99653.84
2023-04-19T09:13:21.308Z,99662.19
2023-04-19T09:16:05.683Z,99667.47
2023-04-19T09:19:05.454Z,99658.75
2023-04-19T09:22:14.814Z,99672.78
2023-04-19T09:27:50.072Z,99671.47
2023-04-19T09:30:38.086Z,99679.59
2023-04-19T09:33:35.210Z,99671.19
2023-04-19T09:36:29.045Z,99682.63
2023-04-19T09:39:14.801Z,99675.78
2023-04-19T09:41:59.404Z,99653.09
2023-04-19T09:45:27.772Z,99632.06
2023-04-19T09:48:07.799Z,99668.34
2023-04-19T09:50:59.559Z,99678.97
2023-04-19T09:53:45.383Z,99654.06
2023-04-19T09:56:30.048Z,99681.22
2023-04-19T09:59:25.218Z,99645.63
2023-04-19T10:02:14.290Z,99668.19
2023-04-19T10:05:16.227Z,99654.41
2023-04-19T10:08:04.159Z,99677.75
2023-04-19T10:10:54.240Z,99636.78
2023-04-19T10:13:38.776Z,99665.22
2023-04-19T10:16:23.017Z,99672.06
2023-04-19T10:19:11.596Z,99665.50
2023-04-19T10:21:56.609Z,99658.97
2023-04-19T10:24:41.447Z,99665.78
2023-04-19T10:27:27.165Z,99653.28
2023-04-19T10:30:19.058Z,99655.59
2023-04-19T10:33:04.164Z,99674.25
2023-04-19T10:35:49.632Z,99658.28
2023-04-19T10:38:38.273Z,99667.88
2023-04-19T10:41:23.265Z,99669.31
2023-04-19T10:44:11.484Z,99669.16
2023-04-19T10:46:55.400Z,99672.25
2023-04-19T10:49:47.078Z,99672.78
2023-04-19T10:52:32.584Z,99671.69
2023-04-19T10:55:19.636Z,99683.78
2023-04-19T10:58:06.429Z,99678.16
2023-04-19T11:00:50.351Z,99681.75
2023-04-19T11:03:53.583Z,99609.69
2023-04-19T11:06:38.297Z,99677.16
2023-04-19T11:09:25.528Z,99676.75
2023-04-19T11:12:12.425Z,99687.94
2023-04-19T11:14:59.996Z,99689.38
2023-04-19T11:17:44.257Z,99693.59
2023-04-19T11:20:28.293Z,99680.31
2023-04-19T11:23:17.732Z,99694.94
2023-04-19T11:26:03.221Z,99678.44
2023-04-19T11:28:47.064Z,99684.22
2023-04-19T11:31:33.688Z,99683.91
2023-04-19T11:34:19.572Z,99676.72
2023-04-19T11:37:03.772Z,99681.72
2023-04-19T11:39:48.540Z,99644.94
2023-04-19T11:42:34.610Z,99662.19
2023-04-19T11:45:30.116Z,99676.22
2023-04-19T11:48:15.903Z,99664.00
2023-04-19T11:51:00.910Z,99665.69
2023-04-19T11:53:45.348Z,99669.25
2023-04-19T11:56:29.481Z,99676.47
2023-04-19T11:59:14.741Z,99668.94
2023-04-19T12:02:06.455Z,99661.94
2023-04-19T12:04:50.742Z,99666.91
2023-04-19T12:07:34.655Z,99667.81
2023-04-19T12:10:18.537Z,99669.41
2023-04-19T12:13:18.533Z,99649.88
2023-04-19T12:16:04.546Z,99662.38
2023-04-19T12:18:50.716Z,99668.84
2023-04-19T12:21:34.826Z,99665.78
2023-04-19T12:24:18.838Z,99661.88
2023-04-19T12:27:03.259Z,99656.34
2023-04-19T12:29:48.151Z,99644.16
2023-04-19T12:32:33.521Z,99656.88
2023-04-19T12:35:17.443Z,99647.34
2023-04-19T12:38:02.805Z,99657.09
2023-04-19T12:40:46.613Z,99639.59
2023-04-19T12:43:32.077Z,99640.38
2023-04-19T12:46:15.983Z,99629.63
2023-04-19T12:49:01.419Z,99639.47
2023-04-19T12:51:47.503Z,99615.13
2023-04-19T12:54:31.248Z,99632.34
2023-04-19T12:57:15.149Z,99614.28
2023-04-19T12:59:59.096Z,99623.47
2023-04-19T13:02:43.231Z,99621.81
2023-04-19T13:05:28.622Z,99605.44
2023-04-19T13:08:12.560Z,99632.56
2023-04-19T13:10:56.998Z,99614.97
2023-04-19T13:13:40.799Z,99621.91
2023-04-19T13:16:24.741Z,99620.94
2023-04-19T13:19:08.834Z,99619.44
2023-04-19T13:21:54.240Z,99621.09
2023-04-19T13:24:38.245Z,99616.81
2023-04-19T13:27:22.161Z,99619.22
2023-04-19T13:30:07.015Z,99625.16
2023-04-19T13:32:52.384Z,99633.91
2023-04-19T13:35:36.296Z,99614.56
2023-04-19T13:38:21.505Z,99600.38
2023-04-19T13:41:05.656Z,99616.34
2023-04-19T13:43:49.781Z,99584.97
2023-04-19T13:46:34.073Z,99580.91
2023-04-19T13:49:18.430Z,99614.88
2023-04-19T13:52:02.336Z,99613.97
2023-04-19T13:54:47.738Z,99613.44
2023-04-19T13:57:31.588Z,99619.28
2023-04-19T14:00:16.781Z,99615.91
2023-04-19T14:03:00.769Z,99575.22
2023-04-19T14:05:44.756Z,99615.66
2023-04-19T14:08:32.580Z,99597.09
2023-04-19T14:11:18.657Z,99608.53
2023-04-19T14:14:02.734Z,99599.38
2023-04-19T14:16:47.130Z,99608.19
2023-04-19T14:19:31.425Z,99543.41
2023-04-19T14:22:15.353Z,99596.75
2023-04-19T14:24:59.251Z,99604.63
2023-04-19T14:27:44.748Z,99609.88
2023-04-19T14:30:29.994Z,99601.09
2023-04-19T14:33:15.349Z,99611.94
2023-04-19T14:35:59.284Z,99602.28
2023-04-19T14:38:43.075Z,99608.22
2023-04-19T14:41:27.034Z,99575.66
2023-04-19T14:44:12.307Z,99592.53
2023-04-19T14:46:56.281Z,99589.19
2023-04-19T14:49:40.335Z,99601.84
2023-04-19T14:52:24.590Z,99593.75
2023-04-19T14:55:09.710Z,99598.03
2023-04-19T14:57:53.586Z,99608.41
2023-04-19T15:00:38.928Z,99605.03
2023-04-19T15:03:23.096Z,99619.75
2023-04-19T15:06:08.088Z,99601.69
2023-04-19T15:08:51.998Z,99606.41
2023-04-19T15:11:35.890Z,99575.78
2023-04-19T15:14:20.039Z,99590.50
2023-04-19T15:17:05.310Z,99571.00
2023-04-19T15:19:49.205Z,99592.28
2023-04-19T15:22:33.826Z,99498.13
2023-04-19T15:25:17.868Z,99611.19
2023-04-19T15:28:01.851Z,99601.94
2023-04-19T15:30:45.867Z,99589.00
2023-04-19T15:33:31.553Z,99608.91
2023-04-19T15:36:15.916Z,99610.34
2023-04-19T15:38:59.808Z,99612.28
2023-04-19T15:41:43.613Z,99602.31
2023-04-19T15:44:27.556Z,99579.63
2023-04-19T15:47:11.466Z,99605.88
2023-04-19T15:49:57.540Z,99596.97
2023-04-19T15:52:41.354Z,99601.53
2023-04-19T15:55:25.148Z,99609.56
2023-04-19T15:58:08.969Z,99599.28
2023-04-19T16:00:52.963Z,99604.78
2023-04-19T16:03:37.207Z,99606.31
2023-04-19T16:06:23.172Z,99599.56
2023-04-19T16:09:08.373Z,99607.97
2023-04-19T16:11:52.593Z,99599.69
2023-04-19T16:14:36.926Z,99602.28
2023-04-19T16:17:20.824Z,99596.34
2023-04-19T16:20:04.929Z,99606.28
2023-04-19T16:22:50.361Z,99594.44
2023-04-19T16:25:34.725Z,99564.41
2023-04-19T16:28:19.028Z,99577.66
2023-04-19T16:31:02.959Z,99597.91
2023-04-19T16:33:46.750Z,99604.88
2023-04-19T16:36:31.632Z,99604.88
2023-04-19T16:39:17.291Z,99601.19
2023-04-19T16:42:01.480Z,99606.75
2023-04-19T16:44:45.464Z,99612.13
2023-04-19T16:47:30.169Z,99611.56
2023-04-19T16:50:14.368Z,99615.91
2023-04-19T16:52:58.654Z,99618.56
2023-04-19T16:55:43.865Z,99621.38
2023-04-19T16:58:28.334Z,99618.78
2023-04-19T17:01:12.463Z,99589.47
2023-04-19T17:03:56.726Z,99597.91
2023-04-19T17:06:41.710Z,99589.81
2023-04-19T17:09:25.737Z,99595.53
2023-04-19T17:12:11.358Z,99578.09
2023-04-19T17:14:55.390Z,99612.63
2023-04-19T17:17:40.113Z,99609.22
2023-04-19T17:20:24.245Z,99603.31
2023-04-19T17:23:08.537Z,99615.16
2023-04-19T17:25:52.533Z,99647.63
2023-04-19T17:28:38.140Z,99643.94
2023-04-19T17:31:22.243Z,99633.09
2023-04-19T17:34:06.031Z,99649.53
2023-04-19T17:36:49.940Z,99645.19
2023-04-19T17:39:33.821Z,99651.47
2023-04-19T17:42:17.785Z,99655.91
2023-04-19T17:45:03.281Z,99664.41
2023-04-19T17:47:48.550Z,99652.03
2023-04-19T17:50:32.527Z,99667.41
2023-04-19T17:53:16.388Z,99675.41
2023-04-19T17:56:00.584Z,99665.69
2023-04-19T17:58:44.466Z,99673.97
2023-04-19T18:01:30.197Z,99654.25
2023-04-19T18:04:17.992Z,99678.63
2023-04-19T18:07:02.323Z,99673.53
2023-04-19T18:09:46.379Z,99681.22
2023-04-19T18:12:30.217Z,99683.94
2023-04-19T18:15:14.190Z,99691.59
2023-04-19T18:17:59.606Z,99685.97
2023-04-19T18:20:43.550Z,99687.78
2023-04-19T18:23:27.368Z,99691.19
2023-04-19T18:26:11.180Z,99699.25
2023-04-19T18:28:55.038Z,99695.97
2023-04-19T18:31:39.227Z,99691.53
2023-04-19T18:34:24.608Z,99702.03
2023-04-19T18:37:16.811Z,99700.78
2023-04-19T18:40:00.629Z,99693.13
2023-04-19T18:42:46.869Z,99698.63
2023-04-19T18:45:31.485Z,99699.06
2023-04-19T18:48:15.467Z,99702.25
2023-04-19T18:51:00.944Z,99661.75
2023-04-19T18:53:45.534Z,99676.28
2023-04-19T18:59:16.747Z,99674.88
2023-04-19T19:02:00.905Z,99683.78
2023-04-19T19:04:56.130Z,99681.41
2023-04-19T19:07:44.041Z,99714.75
2023-04-19T19:10:54.216Z,99686.97
2023-04-19T19:13:32.377Z,99684.44
2023-04-19T19:16:19.427Z,99700.88
2023-04-19T19:19:03.526Z,99717.06
2023-04-19T19:21:48.514Z,99703.09
2023-04-19T19:24:33.857Z,99706.59
2023-04-19T19:27:17.738Z,99701.81
2023-04-19T19:30:03.496Z,99703.41
2023-04-19T19:32:48.565Z,99709.25
2023-04-19T19:35:32.797Z,99701.63
2023-04-19T19:38:17.151Z,99700.44
2023-04-19T19:43:49.281Z,99708.47
2023-04-19T19:46:33.475Z,99698.72
2023-04-19T19:49:18.537Z,99700.88
2023-04-19T19:52:03.279Z,99710.81
2023-04-19T19:54:47.150Z,99705.00
2023-04-19T20:03:07.070Z,99697.66
2023-04-19T20:05:52.109Z,99687.75
2023-04-19T20:08:42.476Z,99690.81
2023-04-19T20:11:28.068Z,99682.53
2023-04-19T20:14:13.347Z,99676.09
2023-04-19T20:16:57.476Z,99697.59
2023-04-19T20:19:45.029Z,99693.97
2023-04-19T20:22:28.948Z,99698.22
2023-04-19T20:25:13.259Z,99695.88
2023-04-19T20:27:57.046Z,99704.34
2023-04-19T20:30:42.388Z,99698.72
2023-04-19T20:33:26.302Z,99700.91
2023-04-19T20:36:10.134Z,99702.38
2023-04-19T20:38:54.142Z,99709.50
2023-04-19T20:41:38.179Z,99707.66
2023-04-19T20:44:23.188Z,99707.09
2023-04-19T20:47:09.010Z,99700.00
2023-04-19T20:49:52.924Z,99706.03
2023-04-19T20:52:36.762Z,99665.56
2023-04-19T20:55:20.530Z,99684.13
2023-04-19T20:58:04.261Z,99684.03
2023-04-19T21:00:48.614Z,99690.16
2023-04-19T21:03:34.088Z,99683.59
2023-04-19T21:06:18.302Z,99684.97
2023-04-19T21:09:04.413Z,99692.59
2023-04-19T21:11:48.361Z,99682.09
2023-04-19T21:14:33.715Z,99687.94
2023-04-19T21:17:17.574Z,99655.16
2023-04-19T21:20:10.945Z,99676.16
2023-04-19T21:22:54.964Z,99646.66
2023-04-19T21:25:38.845Z,99669.16
2023-04-19T21:28:22.724Z,99675.78
2023-04-19T21:31:06.856Z,99678.44
2023-04-19T21:33:50.762Z,99677.38
2023-04-19T21:36:35.990Z,99672.88
2023-04-19T21:39:19.818Z,99645.78
2023-04-19T21:42:03.908Z,99662.88
2023-04-19T21:44:47.964Z,99669.34
2023-04-19T21:47:32.252Z,99666.38
2023-04-19T21:50:16.215Z,99656.81
2023-04-19T21:53:01.521Z,99665.75
2023-04-19T21:55:45.443Z,99666.91
2023-04-19T21:58:29.222Z,99662.53
2023-04-19T22:01:13.105Z,99650.00
2023-04-19T22:03:57.147Z,99651.06
2023-04-19T22:06:41.625Z,99654.97
2023-04-19T22:09:26.927Z,99654.78
2023-04-19T22:12:11.609Z,99662.47
2023-04-19T22:14:56.045Z,99666.53
2023-04-19T22:17:40.496Z,99664.00
2023-04-19T22:20:26.042Z,99663.22
2023-04-19T22:23:10.108Z,99595.06
2023-04-19T22:25:55.610Z,99596.97
2023-04-19T22:28:39.789Z,99672.94
2023-04-19T22:31:23.848Z,99673.13
2023-04-19T22:34:07.871Z,99668.72
2023-04-19T22:36:51.970Z,99622.28
2023-04-19T22:39:36.084Z,99660.16
2023-04-19T22:42:21.646Z,99648.72
2023-04-19T22:45:06.422Z,99620.78
2023-04-19T22:47:50.296Z,99615.69
2023-04-19T22:50:34.447Z,99655.53
2023-04-19T22:53:18.492Z,99654.31
2023-04-19T22:56:02.420Z,99654.41
2023-04-19T22:58:47.909Z,99661.94
2023-04-19T23:01:32.077Z,99621.34
2023-04-19T23:04:16.330Z,99626.34
2023-04-19T23:07:00.383Z,99675.50
2023-04-19T23:09:44.488Z,99632.47
2023-04-19T23:12:31.149Z,99621.75
2023-04-19T23:15:16.740Z,99619.28
2023-04-19T23:18:02.456Z,99654.94
2023-04-19T23:20:46.783Z,99615.13
2023-04-19T23:23:30.841Z,99613.38
2023-04-19T23:26:14.802Z,99640.13
2023-04-19T23:28:58.737Z,99598.25
2023-04-19T23:31:44.263Z,99602.56
2023-04-19T23:34:28.348Z,99640.00
2023-04-19T23:37:12.499Z,99647.69
2023-04-19T23:39:56.580Z,99619.41
2023-04-19T23:42:40.837Z,99589.47
2023-04-19T23:45:24.929Z,99622.88
2023-04-19T23:48:10.526Z,99620.44
2023-04-19T23:50:54.632Z,99585.53
2023-04-19T23:53:38.924Z,99607.78
2023-04-19T23:56:23.000Z,99564.97
2023-04-19T23:59:07.242Z,99609.69
